Time;durP1;ratioP1;P1;durP2;ratioP2;P2;SDS_P1;SDS_P2;PMS_P1;PMS_P2;Temp;Humidity;BMP_temperature;BMP_pressure;BME280_temperature;BME280_humidity;BME280_pressure;Samples;Min_cycle;Max_cycle;Signal;HPM_P1;HPM_P2
2023/03/30 00:01:26;;;;;;;;;;;12.00;78.20;;;;;;4997426;28;19917;-74
2023/03/30 00:03:53;;;;;;;;;;;12.10;78.30;;;;;;4998906;28;19920;-74
2023/03/30 00:06:23;;;;;;;;;;;12.00;78.20;;;;;;5000500;28;19922;-74
2023/03/30 00:08:52;;;;;;;;;;;12.10;78.30;;;;;;4999964;28;20257;-74
2023/03/30 00:11:18;;;;;;;;;;;12.10;78.20;;;;;;4998899;28;20296;-74
2023/03/30 00:13:44;;;;;;;;;;;12.00;78.20;;;;;;5000745;28;19917;-75
2023/03/30 00:16:11;;;;;;;;;;;12.00;78.20;;;;;;5000896;28;20016;-75
2023/03/30 00:18:38;;;;;;;;;;;12.10;78.30;;;;;;4999359;28;19931;-76
2023/03/30 00:21:05;;;;;;;;;;;12.10;78.20;;;;;;5001240;28;19925;-76
2023/03/30 00:23:31;;;;;;;;;;;12.00;78.10;;;;;;5000910;28;20288;-76
2023/03/30 00:25:57;;;;;;;;;;;12.10;78.20;;;;;;4999901;28;19928;-77
2023/03/30 00:28:24;;;;;;;;;;;12.10;78.20;;;;;;5001393;28;20250;-77
2023/03/30 00:30:52;;;;;;;;;;;12.10;78.10;;;;;;4995271;28;19921;-77
2023/03/30 00:33:18;;;;;;;;;;;12.10;78.10;;;;;;4999642;28;19917;-78
2023/03/30 00:35:51;;;;;;;;;;;12.10;78.10;;;;;;5001305;28;19918;-77
2023/03/30 00:38:16;;;;;;;;;;;12.10;78.10;;;;;;5002069;28;19922;-76
2023/03/30 00:40:49;;;;;;;;;;;12.10;78.10;;;;;;5000896;28;19917;-75
2023/03/30 00:43:15;;;;;;;;;;;12.10;78.00;;;;;;4997936;28;19913;-75
2023/03/30 00:45:41;;;;;;;;;;;12.10;78.00;;;;;;5000171;28;19970;-75
2023/03/30 00:48:10;;;;;;;;;;;12.10;77.90;;;;;;5016855;28;20012;-73
2023/03/30 00:50:42;;;;;;;;;;;12.10;77.90;;;;;;5006723;28;19944;-73
2023/03/30 00:53:10;;;;;;;;;;;12.10;77.90;;;;;;5000053;28;19917;-73
2023/03/30 00:55:37;;;;;;;;;;;12.10;77.90;;;;;;5003992;28;20021;-74
2023/03/30 00:58:03;;;;;;;;;;;12.10;77.90;;;;;;5004774;28;19910;-74
2023/03/30 01:00:29;;;;;;;;;;;12.10;77.90;;;;;;5007108;28;19922;-74
2023/03/30 01:03:01;;;;;;;;;;;12.10;77.90;;;;;;5004882;28;20438;-74
2023/03/30 01:05:28;;;;;;;;;;;12.10;77.80;;;;;;5003586;28;20434;-73
2023/03/30 01:07:56;;;;;;;;;;;12.10;77.90;;;;;;5008130;28;20503;-77
2023/03/30 01:10:22;;;;;;;;;;;12.10;77.80;;;;;;5003820;28;19918;-78
2023/03/30 01:12:48;;;;;;;;;;;12.10;77.80;;;;;;5007279;28;19916;-77
2023/03/30 01:15:15;;;;;;;;;;;12.10;77.80;;;;;;5004011;28;19925;-76
2023/03/30 01:17:44;;;;;;;;;;;12.10;77.80;;;;;;5007604;28;19917;-78
2023/03/30 01:20:25;;;;;;;;;;;12.10;77.80;;;;;;4991286;28;19921;-76
2023/03/30 01:23:03;;;;;;;;;;;12.10;77.80;;;;;;5015204;28;20047;-77
2023/03/30 01:25:39;;;;;;;;;;;12.10;77.70;;;;;;5002197;28;19914;-77
2023/03/30 01:28:16;;;;;;;;;;;12.10;77.70;;;;;;5002136;28;20035;-74
2023/03/30 01:31:01;;;;;;;;;;;12.10;77.80;;;;;;5006063;28;19929;-75
2023/03/30 01:33:33;;;;;;;;;;;12.10;77.80;;;;;;5000157;28;19972;-75
2023/03/30 01:36:17;;;;;;;;;;;12.10;77.80;;;;;;4997872;28;20012;-74
2023/03/30 01:39:01;;;;;;;;;;;12.10;77.70;;;;;;4988673;28;19921;-74
2023/03/30 01:41:37;;;;;;;;;;;12.10;77.70;;;;;;5003461;28;19921;-74
2023/03/30 01:44:21;;;;;;;;;;;12.10;77.70;;;;;;4990526;28;19917;-74
2023/03/30 01:46:51;;;;;;;;;;;12.10;77.70;;;;;;5003129;28;20012;-74
2023/03/30 01:49:28;;;;;;;;;;;12.10;77.70;;;;;;5006305;28;20411;-75
2023/03/30 01:52:10;;;;;;;;;;;12.10;77.60;;;;;;5004880;28;19921;-75
2023/03/30 01:54:39;;;;;;;;;;;12.10;77.50;;;;;;4999209;28;19923;-76
2023/03/30 01:57:12;;;;;;;;;;;12.10;77.50;;;;;;5004550;28;19917;-77
2023/03/30 02:00:00;;;;;;;;;;;12.20;77.60;;;;;;5022552;28;19918;-76
2023/03/30 02:02:29;;;;;;;;;;;12.10;77.60;;;;;;5004876;28;19922;-75
2023/03/30 02:04:56;;;;;;;;;;;12.10;78.20;;;;;;5003367;28;19928;-75
2023/03/30 02:07:24;;;;;;;;;;;12.20;77.70;;;;;;5001683;28;19917;-75
2023/03/30 02:09:52;;;;;;;;;;;12.20;77.70;;;;;;5004370;28;19909;-75
2023/03/30 02:12:18;;;;;;;;;;;12.10;77.60;;;;;;5001840;28;19921;-75
2023/03/30 02:14:45;;;;;;;;;;;12.10;77.50;;;;;;5001578;28;19924;-76
2023/03/30 02:17:11;;;;;;;;;;;12.20;77.60;;;;;;4989463;28;19917;-75
2023/03/30 02:19:37;;;;;;;;;;;12.20;77.60;;;;;;5001435;28;19928;-76
2023/03/30 02:22:03;;;;;;;;;;;12.20;77.50;;;;;;5017437;28;19920;-75
2023/03/30 02:24:30;;;;;;;;;;;12.20;77.50;;;;;;5004427;28;19924;-75
2023/03/30 02:26:57;;;;;;;;;;;12.20;77.50;;;;;;5001428;28;19924;-75
2023/03/30 02:29:23;;;;;;;;;;;12.20;77.50;;;;;;5004226;28;19932;-74
2023/03/30 02:31:51;;;;;;;;;;;12.20;77.50;;;;;;5000713;28;19921;-76
2023/03/30 02:34:17;;;;;;;;;;;12.20;77.40;;;;;;5000669;28;19914;-76
2023/03/30 02:36:52;;;;;;;;;;;12.20;77.40;;;;;;5003140;28;19916;-75
2023/03/30 02:39:21;;;;;;;;;;;12.20;77.40;;;;;;4997621;28;20017;-76
2023/03/30 02:41:50;;;;;;;;;;;12.20;77.20;;;;;;5004730;28;19922;-76
2023/03/30 02:44:25;;;;;;;;;;;12.20;77.10;;;;;;5021976;28;19924;-76
2023/03/30 02:46:51;;;;;;;;;;;12.20;77.00;;;;;;5004962;28;20418;-77
2023/03/30 02:49:18;;;;;;;;;;;12.20;76.90;;;;;;4999654;28;20503;-77
2023/03/30 02:51:53;;;;;;;;;;;12.20;76.80;;;;;;4988243;28;19922;-76
2023/03/30 02:54:31;;;;;;;;;;;12.20;76.60;;;;;;5016784;28;19972;-76
2023/03/30 02:57:32;;;;;;;;;;;12.20;76.40;;;;;;4984812;28;19980;-76
2023/03/30 03:00:22;;;;;;;;;;;12.20;76.00;;;;;;5000185;28;19918;-77
2023/03/30 03:02:50;;;;;;;;;;;12.20;75.90;;;;;;5001620;28;19917;-76
2023/03/30 03:05:25;;;;;;;;;;;12.20;75.60;;;;;;5016956;28;20000;-77
2023/03/30 03:08:04;;;;;;;;;;;12.20;75.50;;;;;;5000929;28;20400;-75
2023/03/30 03:10:35;;;;;;;;;;;12.20;75.20;;;;;;5003843;28;19917;-76
2023/03/30 03:13:01;;;;;;;;;;;12.20;75.00;;;;;;5003258;28;19960;-75
2023/03/30 03:15:27;;;;;;;;;;;12.20;74.80;;;;;;5000620;28;20024;-76
2023/03/30 03:18:19;;;;;;;;;;;12.20;74.50;;;;;;4998871;28;19918;-76
2023/03/30 03:20:45;;;;;;;;;;;12.20;74.40;;;;;;4999146;28;19967;-76
2023/03/30 03:23:11;;;;;;;;;;;12.20;74.20;;;;;;5003551;28;20400;-77
2023/03/30 03:25:47;;;;;;;;;;;12.20;74.00;;;;;;5000276;28;19976;-79
2023/03/30 03:28:15;;;;;;;;;;;12.20;73.90;;;;;;5001143;28;20372;-78
2023/03/30 03:30:45;;;;;;;;;;;12.20;73.70;;;;;;5003241;28;19925;-79
2023/03/30 03:33:19;;;;;;;;;;;12.20;73.70;;;;;;5004614;28;20412;-78
2023/03/30 03:35:53;;;;;;;;;;;12.20;73.50;;;;;;5004437;28;20289;-77
2023/03/30 03:38:21;;;;;;;;;;;12.20;73.40;;;;;;5002375;28;19917;-76
2023/03/30 03:40:48;;;;;;;;;;;12.20;73.30;;;;;;5003530;28;20008;-76
2023/03/30 03:43:14;;;;;;;;;;;12.20;73.20;;;;;;5003899;28;19913;-76
2023/03/30 03:45:40;;;;;;;;;;;12.20;73.00;;;;;;5004593;28;20364;-76
2023/03/30 03:48:07;;;;;;;;;;;12.20;72.90;;;;;;5003489;28;20299;-75
2023/03/30 03:50:48;;;;;;;;;;;12.20;72.90;;;;;;5002039;28;21682;-75
2023/03/30 03:53:14;;;;;;;;;;;12.20;73.00;;;;;;4985481;28;19928;-76
2023/03/30 03:55:41;;;;;;;;;;;12.10;73.00;;;;;;5002915;28;19969;-76
2023/03/30 03:58:07;;;;;;;;;;;12.10;72.90;;;;;;5017273;28;19917;-77
2023/03/30 04:00:35;;;;;;;;;;;12.10;72.90;;;;;;4999585;28;19968;-79
2023/03/30 04:03:01;;;;;;;;;;;12.20;73.10;;;;;;4998814;28;20299;-80
2023/03/30 04:05:26;;;;;;;;;;;12.10;73.00;;;;;;5001850;28;20350;-79
2023/03/30 04:07:52;;;;;;;;;;;12.20;73.10;;;;;;5000157;28;20060;-78
2023/03/30 04:10:19;;;;;;;;;;;12.20;73.10;;;;;;4998564;28;19965;-78
2023/03/30 04:13:03;;;;;;;;;;;12.20;73.20;;;;;;4994377;28;20291;-75
2023/03/30 04:15:48;;;;;;;;;;;12.20;73.20;;;;;;4999842;28;19972;-77
2023/03/30 04:18:14;;;;;;;;;;;12.10;73.30;;;;;;4998193;28;19918;-76
2023/03/30 04:20:51;;;;;;;;;;;12.20;73.40;;;;;;4998814;28;19923;-76
2023/03/30 04:23:44;;;;;;;;;;;12.20;73.40;;;;;;4997597;28;19981;-74
2023/03/30 04:26:29;;;;;;;;;;;12.20;73.30;;;;;;5000704;28;20392;-77
2023/03/30 04:29:09;;;;;;;;;;;12.10;73.20;;;;;;4997829;28;19932;-77
2023/03/30 04:32:01;;;;;;;;;;;12.10;73.10;;;;;;4996927;28;19984;-76
2023/03/30 04:34:47;;;;;;;;;;;12.20;73.00;;;;;;4997205;28;19918;-83
2023/03/30 04:37:32;;;;;;;;;;;12.10;72.80;;;;;;5001541;28;19913;-80
2023/03/30 04:40:20;;;;;;;;;;;12.10;72.70;;;;;;5003047;28;19910;-82
2023/03/30 04:43:05;;;;;;;;;;;12.20;72.70;;;;;;4999925;28;21122;-83
2023/03/30 04:45:55;;;;;;;;;;;12.10;72.40;;;;;;5001334;28;19917;-78
2023/03/30 04:48:21;;;;;;;;;;;12.10;72.30;;;;;;4997944;28;19925;-79
2023/03/30 04:51:05;;;;;;;;;;;12.10;72.20;;;;;;4997216;28;19976;-79
2023/03/30 04:53:50;;;;;;;;;;;12.10;72.00;;;;;;5002115;28;19921;-81
2023/03/30 04:56:25;;;;;;;;;;;12.10;71.90;;;;;;4997993;28;20451;-86
2023/03/30 04:59:09;;;;;;;;;;;12.10;71.80;;;;;;4998573;28;20700;-86
2023/03/30 05:01:54;;;;;;;;;;;12.10;71.70;;;;;;4998290;28;20305;-85
2023/03/30 05:04:31;;;;;;;;;;;12.10;71.50;;;;;;4985367;28;19917;-83
2023/03/30 05:07:17;;;;;;;;;;;12.10;71.50;;;;;;4976729;28;19933;-81
2023/03/30 05:10:01;;;;;;;;;;;12.10;71.40;;;;;;4976672;28;19924;-83
2023/03/30 05:13:03;;;;;;;;;;;12.10;71.30;;;;;;4911137;29;19927;-82
2023/03/30 05:15:51;;;;;;;;;;;12.10;71.50;;;;;;4962822;28;19921;-83
2023/03/30 05:18:40;;;;;;;;;;;12.10;71.30;;;;;;4975942;28;19917;-83
2023/03/30 05:21:16;;;;;;;;;;;12.10;71.30;;;;;;4961845;28;20667;-83
2023/03/30 05:24:00;;;;;;;;;;;12.20;71.40;;;;;;4978214;28;19953;-84
2023/03/30 05:26:49;;;;;;;;;;;12.10;71.40;;;;;;4916578;29;20304;-85
2023/03/30 05:29:47;;;;;;;;;;;12.20;71.50;;;;;;4875140;29;19962;-85
2023/03/30 05:32:36;;;;;;;;;;;12.20;71.30;;;;;;4902211;29;19994;-86
2023/03/30 05:35:20;;;;;;;;;;;12.20;71.10;;;;;;4905639;29;20478;-86
2023/03/30 05:38:13;;;;;;;;;;;12.10;70.90;;;;;;4901936;29;20465;-86
2023/03/30 05:40:57;;;;;;;;;;;12.20;70.80;;;;;;4921110;29;20015;-87
2023/03/30 05:43:26;;;;;;;;;;;12.20;70.70;;;;;;4923124;28;20477;-86
2023/03/30 05:46:10;;;;;;;;;;;12.20;70.70;;;;;;4971536;28;19910;-87
2023/03/30 05:49:05;;;;;;;;;;;12.20;70.50;;;;;;4953315;28;19990;-83
2023/03/30 05:51:48;;;;;;;;;;;12.20;70.30;;;;;;4966127;28;19957;-85
2023/03/30 05:54:36;;;;;;;;;;;12.20;70.10;;;;;;4947206;28;20507;-87
2023/03/30 05:57:09;;;;;;;;;;;12.20;69.80;;;;;;4966340;28;19918;-87
2023/03/30 05:59:46;;;;;;;;;;;12.20;69.60;;;;;;4951131;28;19929;-83
2023/03/30 06:02:20;;;;;;;;;;;12.30;70.10;;;;;;4949948;28;19925;-75
2023/03/30 06:04:47;;;;;;;;;;;12.20;70.10;;;;;;4992096;28;19917;-75
2023/03/30 06:07:13;;;;;;;;;;;12.30;74.90;;;;;;5002249;28;20422;-84
2023/03/30 06:09:39;;;;;;;;;;;12.40;76.40;;;;;;4973417;28;19971;-81
2023/03/30 06:12:16;;;;;;;;;;;12.30;73.50;;;;;;5000460;28;19925;-78
2023/03/30 06:14:42;;;;;;;;;;;12.20;70.80;;;;;;5002847;28;19967;-78
2023/03/30 06:17:22;;;;;;;;;;;12.10;69.40;;;;;;5012319;28;20664;-76
2023/03/30 06:19:48;;;;;;;;;;;12.00;68.70;;;;;;5002085;28;19960;-80
2023/03/30 06:22:14;;;;;;;;;;;12.00;68.50;;;;;;5004181;28;19913;-79
2023/03/30 06:25:22;;;;;;;;;;;12.00;67.80;;;;;;4984970;28;20462;-80
2023/03/30 06:27:49;;;;;;;;;;;11.90;67.40;;;;;;5005214;28;20299;-79
2023/03/30 06:30:15;;;;;;;;;;;11.80;67.50;;;;;;5001266;28;19933;-80
2023/03/30 06:32:44;;;;;;;;;;;11.80;67.00;;;;;;5000698;28;19917;-77
2023/03/30 06:35:33;;;;;;;;;;;11.70;67.30;;;;;;4995650;28;19917;-78
2023/03/30 06:38:00;;;;;;;;;;;11.70;66.90;;;;;;4999672;28;19925;-78
2023/03/30 06:40:26;;;;;;;;;;;11.70;67.30;;;;;;5000858;28;19920;-77
2023/03/30 06:42:55;;;;;;;;;;;11.70;67.10;;;;;;5021348;28;19917;-79
2023/03/30 06:45:48;;;;;;;;;;;11.70;66.90;;;;;;4982261;28;21351;-78
2023/03/30 06:48:14;;;;;;;;;;;11.70;66.60;;;;;;5000155;28;20056;-79
2023/03/30 06:50:40;;;;;;;;;;;11.60;66.30;;;;;;5004017;28;19929;-79
2023/03/30 06:53:17;;;;;;;;;;;11.60;66.60;;;;;;5001166;28;20012;-80
2023/03/30 06:55:50;;;;;;;;;;;11.60;66.20;;;;;;4988246;28;20036;-80
2023/03/30 06:58:17;;;;;;;;;;;11.50;66.40;;;;;;4999633;28;19953;-77
2023/03/30 07:00:45;;;;;;;;;;;11.50;66.60;;;;;;5003671;28;19917;-79
2023/03/30 07:03:43;;;;;;;;;;;11.60;66.90;;;;;;4980220;28;19922;-78
2023/03/30 07:06:29;;;;;;;;;;;11.60;66.60;;;;;;4989252;28;19917;-78
2023/03/30 07:08:55;;;;;;;;;;;11.60;66.60;;;;;;5002659;28;19963;-79
2023/03/30 07:11:25;;;;;;;;;;;11.60;66.50;;;;;;5003854;28;19976;-78
2023/03/30 07:13:51;;;;;;;;;;;11.60;66.60;;;;;;4999628;28;20376;-79
2023/03/30 07:16:17;;;;;;;;;;;11.70;66.50;;;;;;5000305;28;20348;-76
2023/03/30 07:18:43;;;;;;;;;;;11.60;66.20;;;;;;5000778;28;20557;-77
2023/03/30 07:21:09;;;;;;;;;;;11.60;65.90;;;;;;4999655;28;20304;-79
2023/03/30 07:23:38;;;;;;;;;;;11.70;66.00;;;;;;5002323;28;19925;-79
2023/03/30 07:26:04;;;;;;;;;;;11.70;65.60;;;;;;5001655;28;19948;-79
2023/03/30 07:28:39;;;;;;;;;;;11.70;65.70;;;;;;4996753;28;19925;-79
2023/03/30 07:31:10;;;;;;;;;;;11.80;65.80;;;;;;5002310;28;19921;-79
2023/03/30 07:33:38;;;;;;;;;;;11.80;65.60;;;;;;5020705;28;19917;-80
2023/03/30 07:36:07;;;;;;;;;;;11.70;65.40;;;;;;5001717;28;19936;-79
2023/03/30 07:38:33;;;;;;;;;;;11.70;65.70;;;;;;5000652;28;20320;-81
2023/03/30 07:40:59;;;;;;;;;;;11.70;65.70;;;;;;5001166;28;19917;-80
2023/03/30 07:43:26;;;;;;;;;;;11.70;65.70;;;;;;4997927;28;19914;-79
2023/03/30 07:45:54;;;;;;;;;;;11.70;65.50;;;;;;4984454;28;20016;-80
2023/03/30 07:48:34;;;;;;;;;;;11.70;65.70;;;;;;5000625;28;19917;-80
2023/03/30 07:51:05;;;;;;;;;;;11.70;65.60;;;;;;5000061;28;19921;-81
2023/03/30 07:53:34;;;;;;;;;;;11.70;65.30;;;;;;5001124;28;19925;-80
2023/03/30 07:56:03;;;;;;;;;;;11.80;65.70;;;;;;4999026;28;20404;-77
2023/03/30 07:58:39;;;;;;;;;;;11.70;65.60;;;;;;4987631;28;19921;-79
2023/03/30 08:01:05;;;;;;;;;;;11.80;65.60;;;;;;4999074;28;19913;-79
2023/03/30 08:03:37;;;;;;;;;;;11.80;65.60;;;;;;5003277;28;20346;-80
2023/03/30 08:06:05;;;;;;;;;;;11.80;65.30;;;;;;5002448;28;19945;-77
2023/03/30 08:08:37;;;;;;;;;;;11.80;65.60;;;;;;5013972;28;20396;-79
2023/03/30 08:11:04;;;;;;;;;;;11.80;65.30;;;;;;5002627;28;19932;-75
2023/03/30 08:13:31;;;;;;;;;;;11.80;65.20;;;;;;4998178;28;19914;-79
2023/03/30 08:15:57;;;;;;;;;;;11.80;65.00;;;;;;4987524;28;20355;-79
2023/03/30 08:18:23;;;;;;;;;;;11.80;65.10;;;;;;4997335;28;19928;-78
2023/03/30 08:20:52;;;;;;;;;;;11.80;65.00;;;;;;5000424;28;19917;-81
2023/03/30 08:23:18;;;;;;;;;;;11.80;65.10;;;;;;4997030;28;19917;-80
2023/03/30 08:25:51;;;;;;;;;;;11.90;65.00;;;;;;4999589;28;19929;-80
2023/03/30 08:28:20;;;;;;;;;;;11.90;65.00;;;;;;5003608;28;19917;-81
2023/03/30 08:30:46;;;;;;;;;;;11.90;65.10;;;;;;4984319;28;19926;-80
2023/03/30 08:33:13;;;;;;;;;;;11.90;65.20;;;;;;5000369;28;19948;-81
2023/03/30 08:35:39;;;;;;;;;;;11.80;65.00;;;;;;4999598;28;19933;-78
2023/03/30 08:38:05;;;;;;;;;;;11.80;65.30;;;;;;4996694;28;19929;-79
2023/03/30 08:40:31;;;;;;;;;;;11.80;64.90;;;;;;4999839;28;19920;-81
2023/03/30 08:42:59;;;;;;;;;;;11.80;64.90;;;;;;5001868;28;19913;-81
2023/03/30 08:45:32;;;;;;;;;;;11.80;64.70;;;;;;4999818;28;19918;-80
2023/03/30 08:47:58;;;;;;;;;;;11.90;64.70;;;;;;4999707;28;19918;-81
2023/03/30 08:50:24;;;;;;;;;;;11.80;64.10;;;;;;5013254;28;19928;-76
2023/03/30 08:52:51;;;;;;;;;;;11.80;64.60;;;;;;4999654;28;20752;-79
2023/03/30 08:55:27;;;;;;;;;;;11.80;64.50;;;;;;5000512;28;20019;-80
2023/03/30 08:58:22;;;;;;;;;;;11.90;64.60;;;;;;4996039;28;19921;-82
2023/03/30 09:00:54;;;;;;;;;;;11.80;64.40;;;;;;4986360;28;19944;-77
2023/03/30 09:03:33;;;;;;;;;;;11.80;64.30;;;;;;4999535;28;19917;-80
2023/03/30 09:06:03;;;;;;;;;;;11.80;64.30;;;;;;4999531;28;19918;-80
2023/03/30 09:08:30;;;;;;;;;;;11.80;64.50;;;;;;5000907;28;19919;-80
2023/03/30 09:11:01;;;;;;;;;;;11.80;64.50;;;;;;5002087;28;20019;-81
2023/03/30 09:13:28;;;;;;;;;;;11.90;64.20;;;;;;5001974;28;19913;-80
2023/03/30 09:16:17;;;;;;;;;;;11.80;63.80;;;;;;5006701;28;20296;-79
2023/03/30 09:18:45;;;;;;;;;;;11.80;64.20;;;;;;5003020;28;20016;-77
2023/03/30 09:21:12;;;;;;;;;;;11.80;64.20;;;;;;5000377;28;19925;-80
2023/03/30 09:23:38;;;;;;;;;;;11.80;63.20;;;;;;5002024;28;19929;-80
2023/03/30 09:26:19;;;;;;;;;;;11.70;63.10;;;;;;4999741;28;20163;-78
2023/03/30 09:29:02;;;;;;;;;;;11.80;63.00;;;;;;5003849;28;19921;-80
2023/03/30 09:31:35;;;;;;;;;;;11.80;62.70;;;;;;5006134;28;19976;-78
2023/03/30 09:34:05;;;;;;;;;;;11.80;63.20;;;;;;5002515;28;19910;-79
2023/03/30 09:36:40;;;;;;;;;;;11.70;63.00;;;;;;5001693;28;19947;-78
2023/03/30 09:39:19;;;;;;;;;;;11.70;63.40;;;;;;5005528;28;19948;-79
2023/03/30 09:42:04;;;;;;;;;;;11.80;63.40;;;;;;5002075;28;20466;-80
2023/03/30 09:44:39;;;;;;;;;;;11.80;63.90;;;;;;5000116;28;20446;-79
2023/03/30 09:47:15;;;;;;;;;;;11.80;64.10;;;;;;5003034;28;20520;-78
2023/03/30 09:49:41;;;;;;;;;;;11.70;64.10;;;;;;5016644;28;19918;-77
2023/03/30 09:52:17;;;;;;;;;;;11.70;63.90;;;;;;5003011;28;20840;-78
2023/03/30 09:54:43;;;;;;;;;;;11.80;64.20;;;;;;5001761;28;19918;-77
2023/03/30 09:57:28;;;;;;;;;;;11.70;64.30;;;;;;5001052;28;19924;-78
2023/03/30 09:59:55;;;;;;;;;;;11.70;64.20;;;;;;5001007;28;20448;-77
2023/03/30 10:02:22;;;;;;;;;;;11.70;64.10;;;;;;5003776;28;19917;-79
2023/03/30 10:04:51;;;;;;;;;;;11.60;64.30;;;;;;5015251;28;19922;-78
2023/03/30 10:07:38;;;;;;;;;;;11.50;64.60;;;;;;5003083;28;19917;-79
2023/03/30 10:10:19;;;;;;;;;;;11.50;65.20;;;;;;5001711;28;19921;-77
2023/03/30 10:12:47;;;;;;;;;;;11.40;65.50;;;;;;5003163;28;19995;-78
2023/03/30 10:15:20;;;;;;;;;;;11.40;65.90;;;;;;5001160;28;19949;-77
2023/03/30 10:17:46;;;;;;;;;;;11.30;66.20;;;;;;5001688;28;19995;-76
2023/03/30 10:20:15;;;;;;;;;;;11.40;66.30;;;;;;5001706;28;20012;-78
2023/03/30 10:22:48;;;;;;;;;;;11.40;66.40;;;;;;5002589;28;19924;-77
2023/03/30 10:25:17;;;;;;;;;;;11.40;66.60;;;;;;5001742;28;19913;-77
2023/03/30 10:27:44;;;;;;;;;;;11.40;66.70;;;;;;4988647;28;19928;-75
2023/03/30 10:30:11;;;;;;;;;;;11.40;66.90;;;;;;5000335;28;20392;-77
2023/03/30 10:32:37;;;;;;;;;;;11.40;67.00;;;;;;5005181;28;20722;-77
2023/03/30 10:35:07;;;;;;;;;;;11.30;67.20;;;;;;5002911;28;19956;-78
2023/03/30 10:37:35;;;;;;;;;;;11.30;67.40;;;;;;4999997;28;19920;-78
2023/03/30 10:40:09;;;;;;;;;;;11.30;67.50;;;;;;5014595;28;19909;-78
2023/03/30 10:42:35;;;;;;;;;;;11.30;67.60;;;;;;5016234;28;19952;-78
2023/03/30 10:45:03;;;;;;;;;;;11.20;67.70;;;;;;4999972;28;19917;-77
2023/03/30 10:47:41;;;;;;;;;;;11.30;67.70;;;;;;5000483;28;19967;-78
2023/03/30 10:50:12;;;;;;;;;;;11.30;67.80;;;;;;5001295;28;19917;-77
2023/03/30 10:52:57;;;;;;;;;;;11.20;67.80;;;;;;5001911;28;20426;-78
2023/03/30 10:55:32;;;;;;;;;;;11.20;67.90;;;;;;5000224;28;19956;-78
2023/03/30 10:58:05;;;;;;;;;;;11.10;68.20;;;;;;4999195;28;19909;-79
2023/03/30 11:00:36;;;;;;;;;;;11.10;68.50;;;;;;4999353;28;20448;-79
2023/03/30 11:03:07;;;;;;;;;;;11.10;68.60;;;;;;5001032;28;19975;-79
2023/03/30 11:05:34;;;;;;;;;;;11.10;68.80;;;;;;5001571;28;19917;-79
2023/03/30 11:08:05;;;;;;;;;;;11.10;69.10;;;;;;4999758;28;19918;-78
2023/03/30 11:10:34;;;;;;;;;;;11.10;69.40;;;;;;5001583;28;19914;-78
2023/03/30 11:13:10;;;;;;;;;;;11.00;69.40;;;;;;5000777;28;19917;-78
2023/03/30 11:15:55;;;;;;;;;;;11.00;69.30;;;;;;5002415;28;19917;-78
2023/03/30 11:18:24;;;;;;;;;;;10.90;69.50;;;;;;5001598;28;20020;-78
2023/03/30 11:21:09;;;;;;;;;;;10.90;69.70;;;;;;5000000;28;19923;-78
2023/03/30 11:23:40;;;;;;;;;;;10.90;69.60;;;;;;4999308;28;20352;-78
2023/03/30 11:26:08;;;;;;;;;;;10.90;69.60;;;;;;5000288;28;20428;-77
2023/03/30 11:28:36;;;;;;;;;;;10.90;69.70;;;;;;5001296;28;19913;-77
2023/03/30 11:31:09;;;;;;;;;;;10.90;69.80;;;;;;5001159;28;19928;-78
2023/03/30 11:33:37;;;;;;;;;;;10.90;70.00;;;;;;5000335;28;19921;-78
2023/03/30 11:36:16;;;;;;;;;;;10.90;70.40;;;;;;4999357;28;19928;-76
2023/03/30 11:38:46;;;;;;;;;;;10.80;70.40;;;;;;4997930;28;19922;-78
2023/03/30 11:41:13;;;;;;;;;;;10.80;70.20;;;;;;4998232;28;19945;-77
2023/03/30 11:43:40;;;;;;;;;;;10.80;70.10;;;;;;5000823;28;20459;-77
2023/03/30 11:46:15;;;;;;;;;;;10.80;70.00;;;;;;4999271;28;19935;-76
2023/03/30 11:48:59;;;;;;;;;;;10.80;70.20;;;;;;5001531;28;19964;-78
2023/03/30 11:51:34;;;;;;;;;;;10.80;70.10;;;;;;4999775;28;19948;-76
2023/03/30 11:54:18;;;;;;;;;;;10.80;70.10;;;;;;4999497;28;19963;-77
2023/03/30 11:56:50;;;;;;;;;;;10.80;70.10;;;;;;4997095;28;20260;-77
2023/03/30 11:59:20;;;;;;;;;;;10.80;70.00;;;;;;5002531;28;20019;-78
2023/03/30 12:01:54;;;;;;;;;;;10.80;70.00;;;;;;4997382;28;19917;-74
2023/03/30 12:04:26;;;;;;;;;;;10.80;69.80;;;;;;5002172;28;19913;-76
2023/03/30 12:06:59;;;;;;;;;;;10.80;69.80;;;;;;5000660;28;19909;-74
2023/03/30 12:09:27;;;;;;;;;;;10.70;69.90;;;;;;4998612;28;20404;-74
2023/03/30 12:12:02;;;;;;;;;;;10.80;70.00;;;;;;4999306;28;19998;-76
2023/03/30 12:14:44;;;;;;;;;;;10.70;70.00;;;;;;4996385;28;20297;-75
2023/03/30 12:17:16;;;;;;;;;;;10.70;70.00;;;;;;5000912;28;20403;-76
2023/03/30 12:19:45;;;;;;;;;;;10.70;69.90;;;;;;4998650;28;19984;-75
2023/03/30 12:22:11;;;;;;;;;;;10.60;69.70;;;;;;5001258;28;19914;-76
2023/03/30 12:24:48;;;;;;;;;;;10.60;69.40;;;;;;5000381;28;19949;-75
2023/03/30 12:27:14;;;;;;;;;;;10.60;69.10;;;;;;4997427;28;20172;-75
2023/03/30 12:29:47;;;;;;;;;;;10.50;69.00;;;;;;5000231;28;20042;-75
2023/03/30 12:32:23;;;;;;;;;;;10.50;68.90;;;;;;4998577;28;20308;-75
2023/03/30 12:34:50;;;;;;;;;;;10.40;68.90;;;;;;4998369;28;19917;-76
2023/03/30 12:37:16;;;;;;;;;;;10.50;68.90;;;;;;4998365;28;19920;-77
2023/03/30 12:39:47;;;;;;;;;;;10.40;69.10;;;;;;5018661;28;19917;-75
2023/03/30 12:42:33;;;;;;;;;;;10.30;68.90;;;;;;5010260;28;20335;-75
2023/03/30 12:45:04;;;;;;;;;;;10.40;68.90;;;;;;4998247;28;20011;-76
2023/03/30 12:47:39;;;;;;;;;;;10.30;69.10;;;;;;4999732;28;20396;-74
2023/03/30 12:50:08;;;;;;;;;;;10.30;69.20;;;;;;4996526;28;19976;-73
2023/03/30 12:52:37;;;;;;;;;;;10.30;69.20;;;;;;5001596;28;20039;-75
2023/03/30 12:55:09;;;;;;;;;;;10.30;69.40;;;;;;4998293;28;19914;-75
2023/03/30 12:57:37;;;;;;;;;;;10.30;69.40;;;;;;4986160;28;19924;-78
2023/03/30 13:00:06;;;;;;;;;;;10.30;69.30;;;;;;4996067;28;19924;-78
2023/03/30 13:02:55;;;;;;;;;;;10.30;69.10;;;;;;5000087;28;19917;-76
2023/03/30 13:05:24;;;;;;;;;;;10.20;69.50;;;;;;4996970;28;20468;-78
2023/03/30 13:07:51;;;;;;;;;;;10.20;69.60;;;;;;5001377;28;19955;-76
2023/03/30 13:10:29;;;;;;;;;;;10.20;69.50;;;;;;4999601;28;19917;-78
2023/03/30 13:12:56;;;;;;;;;;;10.20;69.20;;;;;;4989884;28;20012;-78
2023/03/30 13:15:31;;;;;;;;;;;10.20;69.10;;;;;;5011439;28;20315;-79
2023/03/30 13:17:59;;;;;;;;;;;10.10;69.10;;;;;;4999124;28;19921;-77
2023/03/30 13:20:30;;;;;;;;;;;10.10;69.10;;;;;;4996230;28;19922;-78
2023/03/30 13:23:23;;;;;;;;;;;10.10;69.00;;;;;;4999895;28;19917;-79
2023/03/30 13:26:01;;;;;;;;;;;10.10;68.60;;;;;;4999030;28;19940;-78
2023/03/30 13:28:50;;;;;;;;;;;10.00;68.70;;;;;;4997555;28;19921;-78
2023/03/30 13:31:28;;;;;;;;;;;10.00;68.70;;;;;;4993825;28;19921;-77
2023/03/30 13:34:01;;;;;;;;;;;9.90;68.50;;;;;;4999690;28;19917;-78
2023/03/30 13:36:29;;;;;;;;;;;9.90;68.20;;;;;;4979522;28;19928;-77
2023/03/30 13:38:58;;;;;;;;;;;9.80;68.30;;;;;;4998308;28;20562;-78
2023/03/30 13:41:27;;;;;;;;;;;9.80;68.30;;;;;;4997573;28;19922;-77
2023/03/30 13:44:05;;;;;;;;;;;9.80;68.10;;;;;;4997744;28;20312;-78
2023/03/30 13:46:37;;;;;;;;;;;9.80;67.70;;;;;;4998946;28;19920;-78
2023/03/30 13:49:21;;;;;;;;;;;9.80;67.50;;;;;;5000440;28;19941;-77
2023/03/30 13:51:47;;;;;;;;;;;9.80;67.50;;;;;;4997385;28;21029;-77
2023/03/30 13:54:18;;;;;;;;;;;9.80;67.00;;;;;;4996258;28;19929;-78
2023/03/30 13:56:50;;;;;;;;;;;9.80;67.00;;;;;;4988047;28;19928;-77
2023/03/30 13:59:21;;;;;;;;;;;9.70;67.10;;;;;;5001690;28;19918;-78
2023/03/30 14:01:49;;;;;;;;;;;9.70;67.10;;;;;;5003045;28;20323;-78
2023/03/30 14:04:15;;;;;;;;;;;9.70;66.90;;;;;;4999854;28;20288;-78
2023/03/30 14:06:44;;;;;;;;;;;9.70;66.60;;;;;;5001498;28;19921;-77
2023/03/30 14:09:17;;;;;;;;;;;9.60;66.50;;;;;;5001412;28;20020;-78
2023/03/30 14:11:44;;;;;;;;;;;9.60;66.50;;;;;;5001488;28;19964;-82
2023/03/30 14:14:32;;;;;;;;;;;9.50;67.20;;;;;;5001749;28;19917;-80
2023/03/30 14:16:59;;;;;;;;;;;9.50;66.80;;;;;;4999680;28;20502;-80
2023/03/30 14:19:27;;;;;;;;;;;9.50;66.30;;;;;;4987793;28;19914;-81
2023/03/30 14:21:55;;;;;;;;;;;9.50;66.10;;;;;;5000695;28;19933;-80
2023/03/30 14:24:28;;;;;;;;;;;9.50;66.30;;;;;;4985755;28;20509;-79
2023/03/30 14:26:57;;;;;;;;;;;9.60;66.30;;;;;;5000198;28;19925;-81
2023/03/30 14:29:23;;;;;;;;;;;9.50;66.10;;;;;;5000682;28;20008;-80
2023/03/30 14:31:49;;;;;;;;;;;9.50;66.20;;;;;;5016461;28;20023;-78
2023/03/30 14:34:26;;;;;;;;;;;9.50;66.20;;;;;;5002707;28;20281;-79
2023/03/30 14:36:59;;;;;;;;;;;9.50;65.90;;;;;;5002008;28;19917;-79
2023/03/30 14:39:25;;;;;;;;;;;9.50;66.00;;;;;;4999376;28;19917;-78
2023/03/30 14:41:51;;;;;;;;;;;9.50;65.80;;;;;;5000829;28;19944;-79
2023/03/30 14:44:20;;;;;;;;;;;9.40;65.90;;;;;;5002318;28;19917;-79
2023/03/30 14:46:51;;;;;;;;;;;9.40;65.40;;;;;;5001014;28;20009;-80
2023/03/30 14:49:35;;;;;;;;;;;9.40;65.60;;;;;;5004208;28;20293;-80
2023/03/30 14:52:06;;;;;;;;;;;9.40;65.70;;;;;;5011995;28;20320;-79